Time;durP1;ratioP1;P1;durP2;ratioP2;P2;SDS_P1;SDS_P2;PMS_P1;PMS_P2;Temp;Humidity;BMP_temperature;BMP_pressure;BME280_temperature;BME280_humidity;BME280_pressure;Samples;Min_cycle;Max_cycle;Signal;HPM_P1;HPM_P2
2020/12/25 00:01:27;;;;;;;5.90;3.88;;;2.80;99.90;;;;;;5016664;28;20030;-83
2020/12/25 00:03:55;;;;;;;5.35;3.45;;;2.80;99.90;;;;;;4999243;28;20022;-86
2020/12/25 00:06:22;;;;;;;4.93;3.25;;;2.90;99.90;;;;;;5017282;28;20018;-83
2020/12/25 00:08:47;;;;;;;6.63;4.00;;;2.90;99.90;;;;;;4999616;28;20389;-84
2020/12/25 00:11:13;;;;;;;4.10;3.10;;;3.00;99.90;;;;;;5008883;28;20026;-83
2020/12/25 00:13:39;;;;;;;5.88;3.65;;;3.00;99.90;;;;;;5022675;28;20025;-84
2020/12/25 00:16:04;;;;;;;7.00;3.78;;;3.00;99.90;;;;;;5016664;28;20041;-84
2020/12/25 00:18:30;;;;;;;5.22;3.40;;;3.00;99.90;;;;;;4999689;28;20118;-84
2020/12/25 00:20:56;;;;;;;5.50;3.60;;;3.00;99.90;;;;;;5016585;28;20087;-84
2020/12/25 00:23:22;;;;;;;4.55;3.13;;;3.10;99.90;;;;;;5016052;28;20534;-84
2020/12/25 00:25:48;;;;;;;3.95;2.95;;;3.10;99.90;;;;;;4998124;28;20021;-85
2020/12/25 00:28:14;;;;;;;5.40;3.67;;;3.10;99.90;;;;;;4998152;28;20477;-84
2020/12/25 00:30:43;;;;;;;3.13;2.83;;;3.10;99.90;;;;;;4998806;28;20018;-85
2020/12/25 00:33:10;;;;;;;5.43;3.13;;;3.10;99.90;;;;;;5015829;28;20021;-82
2020/12/25 00:35:36;;;;;;;5.43;3.38;;;3.10;99.90;;;;;;5015735;28;20030;-83
2020/12/25 00:38:02;;;;;;;3.67;3.25;;;3.10;99.90;;;;;;5014730;28;20025;-75
2020/12/25 00:40:28;;;;;;;5.50;3.42;;;3.10;99.90;;;;;;5013406;28;20036;-76
2020/12/25 00:42:54;;;;;;;4.18;3.30;;;3.10;99.90;;;;;;5013403;28;20384;-76
2020/12/25 00:45:20;;;;;;;6.97;3.88;;;3.20;99.90;;;;;;5013759;28;20022;-84
2020/12/25 00:47:46;;;;;;;5.82;3.72;;;3.20;99.90;;;;;;5016085;28;20038;-83
2020/12/25 00:50:12;;;;;;;7.18;4.45;;;3.20;99.90;;;;;;5015758;28;20053;-84
2020/12/25 00:52:37;;;;;;;8.05;4.18;;;3.20;99.90;;;;;;5016236;28;20200;-84
2020/12/25 00:55:03;;;;;;;5.32;3.80;;;3.20;99.90;;;;;;5016025;28;20424;-85
2020/12/25 00:57:29;;;;;;;7.00;4.50;;;3.20;99.90;;;;;;4998691;28;20112;-85
2020/12/25 00:59:55;;;;;;;6.65;4.03;;;3.20;99.90;;;;;;5016424;28;20030;-85
2020/12/25 01:02:22;;;;;;;7.70;3.80;;;3.20;99.90;;;;;;4998647;28;20026;-85
2020/12/25 01:04:48;;;;;;;7.18;3.88;;;3.20;99.90;;;;;;4998460;28;20053;-85
2020/12/25 01:07:13;;;;;;;5.70;3.50;;;3.30;99.90;;;;;;4998362;28;20084;-85
2020/12/25 01:09:39;;;;;;;4.60;3.60;;;3.30;99.90;;;;;;5015924;28;20026;-84
2020/12/25 01:12:05;;;;;;;6.20;3.70;;;3.30;99.90;;;;;;5016023;28;20037;-84
2020/12/25 01:14:31;;;;;;;5.28;3.85;;;3.30;99.90;;;;;;4998315;28;20029;-84
2020/12/25 01:16:57;;;;;;;7.40;4.00;;;3.30;99.90;;;;;;4995874;28;20037;-75
2020/12/25 01:19:23;;;;;;;4.90;3.60;;;3.40;99.90;;;;;;4994999;28;20057;-75
2020/12/25 01:21:49;;;;;;;5.00;3.78;;;3.40;99.90;;;;;;5013306;28;20431;-85
2020/12/25 01:24:15;;;;;;;5.05;3.47;;;3.40;99.90;;;;;;5015578;28;20376;-83
2020/12/25 01:26:41;;;;;;;3.35;3.00;;;3.40;99.90;;;;;;5015734;28;20022;-83
2020/12/25 01:29:06;;;;;;;3.47;3.17;;;3.40;99.90;;;;;;5015374;28;20037;-84
2020/12/25 01:31:32;;;;;;;3.13;2.83;;;3.40;99.90;;;;;;4997271;28;20030;-84
2020/12/25 01:33:58;;;;;;;3.25;2.72;;;3.40;99.90;;;;;;5014348;28;20080;-85
2020/12/25 01:36:24;;;;;;;3.88;3.00;;;3.50;99.90;;;;;;5014518;28;20044;-86
2020/12/25 01:38:50;;;;;;;4.05;3.42;;;3.50;99.90;;;;;;5014099;28;20490;-85
2020/12/25 01:41:15;;;;;;;3.78;3.20;;;3.50;99.90;;;;;;4996806;28;20026;-85
2020/12/25 01:43:41;;;;;;;4.15;3.38;;;3.50;99.90;;;;;;5014654;28;20836;-86
2020/12/25 01:46:08;;;;;;;4.22;3.40;;;3.50;99.90;;;;;;5013936;28;20480;-86
2020/12/25 01:48:34;;;;;;;4.75;3.42;;;3.50;99.90;;;;;;5013880;28;20058;-86
2020/12/25 01:51:00;;;;;;;4.38;3.60;;;3.50;99.90;;;;;;5014090;28;20022;-86
2020/12/25 01:53:28;;;;;;;3.28;2.97;;;3.50;99.90;;;;;;5014527;28;20495;-85
2020/12/25 01:55:56;;;;;;;4.63;3.15;;;3.60;99.90;;;;;;4996551;28;20064;-86
2020/12/25 01:58:23;;;;;;;6.68;3.22;;;3.50;99.90;;;;;;4996577;28;20026;-86
2020/12/25 02:00:51;;;;;;;4.03;3.15;;;3.60;99.90;;;;;;5012657;28;20030;-76
2020/12/25 02:03:17;;;;;;;5.43;3.30;;;3.50;99.90;;;;;;4994620;28;20037;-77
2020/12/25 02:05:44;;;;;;;3.00;2.70;;;3.60;99.90;;;;;;5011994;28;20022;-75
2020/12/25 02:08:11;;;;;;;3.20;2.53;;;3.50;99.90;;;;;;5012062;28;20025;-76
2020/12/25 02:10:38;;;;;;;4.85;2.75;;;3.50;99.90;;;;;;5012088;28;20428;-75
2020/12/25 02:13:05;;;;;;;2.88;2.40;;;3.50;99.90;;;;;;4994293;28;20437;-75
2020/12/25 02:15:31;;;;;;;3.60;2.60;;;3.60;99.90;;;;;;5013329;28;20026;-85
2020/12/25 02:17:57;;;;;;;3.10;2.33;;;3.60;99.90;;;;;;5013796;28;20053;-84
2020/12/25 02:20:23;;;;;;;3.50;2.55;;;3.50;99.90;;;;;;5014035;28;20478;-84
2020/12/25 02:22:49;;;;;;;3.97;2.60;;;3.60;99.90;;;;;;5013832;28;20057;-85
2020/12/25 02:25:15;;;;;;;2.38;2.17;;;3.60;99.90;;;;;;5013834;28;20067;-85
2020/12/25 02:27:41;;;;;;;2.97;2.03;;;3.60;99.90;;;;;;5015245;28;20022;-85
2020/12/25 02:30:07;;;;;;;3.85;2.53;;;3.60;99.90;;;;;;5013955;28;20101;-85
2020/12/25 02:32:36;;;;;;;4.13;2.90;;;3.60;99.90;;;;;;4996056;28;20365;-85
2020/12/25 02:35:04;;;;;;;3.80;2.75;;;3.70;99.90;;;;;;5015277;28;20034;-75
2020/12/25 02:37:30;;;;;;;2.30;2.10;;;3.70;99.90;;;;;;5015728;28;20376;-75
2020/12/25 02:39:55;;;;;;;3.08;2.47;;;3.60;99.90;;;;;;4998213;28;20033;-76
2020/12/25 02:42:21;;;;;;;2.00;1.90;;;3.70;99.90;;;;;;5015592;28;20380;-75
2020/12/25 02:44:47;;;;;;;2.38;2.10;;;3.70;99.90;;;;;;5015614;28;20022;-75
2020/12/25 02:47:13;;;;;;;2.17;1.98;;;3.70;99.90;;;;;;4997764;28;20125;-76
2020/12/25 02:49:38;;;;;;;2.08;1.80;;;3.70;99.90;;;;;;5015645;28;20030;-75
2020/12/25 02:52:04;;;;;;;2.53;1.88;;;3.80;99.90;;;;;;5015574;28;20034;-74
2020/12/25 02:54:30;;;;;;;3.30;2.10;;;3.80;99.90;;;;;;5015571;28;20026;-75
2020/12/25 02:56:57;;;;;;;2.10;1.90;;;3.80;99.90;;;;;;5015481;28;20479;-75
2020/12/25 02:59:23;;;;;;;2.83;1.60;;;3.90;99.90;;;;;;5015560;28;20029;-76
2020/12/25 03:01:50;;;;;;;2.10;1.90;;;3.90;99.90;;;;;;4997820;28;20108;-77
2020/12/25 03:04:16;;;;;;;2.28;2.08;;;3.90;99.90;;;;;;5015729;28;20015;-77
2020/12/25 03:06:42;;;;;;;2.13;1.92;;;3.90;99.90;;;;;;5015291;28;20022;-77
2020/12/25 03:09:08;;;;;;;2.13;2.00;;;3.90;99.90;;;;;;5015207;28;20382;-77
2020/12/25 03:11:33;;;;;;;1.98;1.88;;;4.00;99.90;;;;;;5015261;28;20030;-77
2020/12/25 03:13:59;;;;;;;2.03;1.83;;;4.00;99.90;;;;;;5019081;28;20057;-77
2020/12/25 03:16:24;;;;;;;2.38;2.10;;;4.00;99.90;;;;;;5021272;28;20113;-77
2020/12/25 03:18:50;;;;;;;2.40;2.20;;;4.00;99.90;;;;;;5005222;28;20028;-77
2020/12/25 03:21:16;;;;;;;3.55;2.67;;;4.00;99.90;;;;;;5004047;28;20065;-76
2020/12/25 03:23:42;;;;;;;3.22;2.55;;;4.00;99.90;;;;;;5016030;28;20026;-76
2020/12/25 03:26:08;;;;;;;2.53;2.33;;;4.00;99.90;;;;;;5015893;28;20492;-76
2020/12/25 03:28:33;;;;;;;2.60;2.17;;;4.00;99.90;;;;;;4998387;28;20018;-76
2020/12/25 03:30:59;;;;;;;2.30;2.10;;;4.00;99.90;;;;;;5015951;28;20149;-76
2020/12/25 03:33:25;;;;;;;2.47;2.20;;;4.00;99.90;;;;;;5014790;28;20030;-76
2020/12/25 03:35:51;;;;;;;2.10;1.90;;;4.00;99.90;;;;;;4997634;28;20049;-76
2020/12/25 03:38:18;;;;;;;2.00;1.90;;;4.00;99.90;;;;;;4997242;28;20144;-76
2020/12/25 03:40:43;;;;;;;2.58;2.38;;;4.00;99.90;;;;;;4996953;28;20025;-75
2020/12/25 03:43:09;;;;;;;3.28;2.40;;;4.00;99.90;;;;;;5014540;28;20041;-75
2020/12/25 03:45:35;;;;;;;2.80;2.40;;;4.00;99.90;;;;;;5013492;28;20032;-75
2020/12/25 03:48:00;;;;;;;2.80;2.22;;;3.90;99.90;;;;;;4996164;28;20052;-75
2020/12/25 03:50:29;;;;;;;3.97;2.70;;;3.90;99.90;;;;;;5014261;28;20033;-75
2020/12/25 03:52:55;;;;;;;4.22;3.13;;;3.90;99.90;;;;;;5014292;28;20420;-75
2020/12/25 03:55:21;;;;;;;5.40;3.05;;;4.00;99.90;;;;;;4996703;28;20036;-76
2020/12/25 03:57:47;;;;;;;3.67;2.95;;;4.00;99.90;;;;;;4997459;28;20032;-84
2020/12/25 04:00:13;;;;;;;4.28;2.88;;;4.00;99.90;;;;;;5016476;28;20108;-84
2020/12/25 04:02:39;;;;;;;4.10;3.20;;;3.90;99.90;;;;;;5016031;28;20034;-83
2020/12/25 04:05:05;;;;;;;5.20;3.33;;;4.00;99.90;;;;;;5015800;28;20037;-83
2020/12/25 04:07:31;;;;;;;4.88;3.47;;;3.90;99.90;;;;;;5016232;28;20497;-83
2020/12/25 04:09:56;;;;;;;3.15;2.80;;;3.90;99.90;;;;;;4998228;28;20097;-84
2020/12/25 04:12:22;;;;;;;4.35;3.30;;;3.90;99.90;;;;;;5014737;28;20041;-76
2020/12/25 04:14:48;;;;;;;4.90;3.50;;;3.90;99.90;;;;;;5013804;28;20029;-76
2020/12/25 04:17:13;;;;;;;4.15;3.40;;;4.00;99.90;;;;;;5013920;28;20056;-75
2020/12/25 04:19:39;;;;;;;6.28;3.85;;;4.00;99.90;;;;;;5014026;28;20372;-75
2020/12/25 04:22:05;;;;;;;5.78;3.90;;;3.90;99.90;;;;;;4996157;28;20073;-76
2020/12/25 04:24:30;;;;;;;4.82;3.65;;;3.90;99.90;;;;;;5013689;28;20033;-76
2020/12/25 04:26:56;;;;;;;4.72;3.50;;;4.00;99.90;;;;;;5013599;28;20132;-76
2020/12/25 04:29:22;;;;;;;4.38;3.47;;;4.00;99.90;;;;;;5013854;28;20025;-77
2020/12/25 04:31:48;;;;;;;6.63;3.65;;;4.00;99.90;;;;;;5013802;28;20030;-76
2020/12/25 04:34:14;;;;;;;5.72;3.80;;;4.00;99.90;;;;;;5013548;28;20584;-75
2020/12/25 04:36:39;;;;;;;5.47;4.03;;;4.00;99.90;;;;;;5013416;28;20100;-76
2020/12/25 04:39:06;;;;;;;7.72;4.50;;;4.00;99.90;;;;;;5013239;28;20433;-75
2020/12/25 04:41:33;;;;;;;6.43;4.28;;;3.90;99.90;;;;;;5013387;28;20026;-75
2020/12/25 04:44:00;;;;;;;6.85;4.30;;;4.00;99.90;;;;;;4995831;28;20026;-76
2020/12/25 04:46:26;;;;;;;6.72;4.57;;;4.00;99.90;;;;;;5013242;28;20053;-77
2020/12/25 04:48:53;;;;;;;9.13;5.50;;;4.00;99.90;;;;;;4995576;28;20092;-76
2020/12/25 04:51:19;;;;;;;7.93;5.25;;;4.00;99.90;;;;;;4995565;28;20026;-76
2020/12/25 04:53:52;;;;;;;6.85;4.88;;;4.00;99.90;;;;;;5013313;28;20824;-75
2020/12/25 04:56:20;;;;;;;8.57;5.18;;;4.00;99.90;;;;;;5013157;28;20113;-75
2020/12/25 04:58:46;;;;;;;8.65;5.30;;;4.00;99.90;;;;;;4994769;28;20030;-76
2020/12/25 05:01:12;;;;;;;8.75;5.13;;;4.00;99.90;;;;;;5012948;28;20097;-75
2020/12/25 05:03:39;;;;;;;8.45;5.13;;;4.00;99.90;;;;;;4995445;28;20053;-76
2020/12/25 05:06:17;;;;;;;8.40;5.32;;;4.00;99.90;;;;;;5013015;28;20025;-76
2020/12/25 05:08:50;;;;;;;6.18;4.60;;;4.00;99.90;;;;;;5012855;28;20018;-76
2020/12/25 05:11:18;;;;;;;5.60;4.32;;;4.00;99.90;;;;;;5012980;28;20380;-76
2020/12/25 05:13:48;;;;;;;7.40;4.68;;;4.00;99.90;;;;;;5012598;28;20014;-75
2020/12/25 05:16:15;;;;;;;6.50;4.70;;;3.90;99.90;;;;;;5012796;28;20473;-75
2020/12/25 05:18:43;;;;;;;5.78;4.10;;;3.90;99.90;;;;;;5012732;28;20093;-77
2020/12/25 05:21:14;;;;;;;6.30;4.32;;;3.90;99.90;;;;;;5012648;28;20014;-75
2020/12/25 05:23:41;;;;;;;4.32;3.78;;;3.90;99.90;;;;;;5012605;28;20503;-76
2020/12/25 05:26:08;;;;;;;5.32;4.00;;;3.90;99.90;;;;;;5012459;28;20071;-76
2020/12/25 05:28:50;;;;;;;5.43;3.80;;;3.90;99.90;;;;;;5012357;28;20026;-77
2020/12/25 05:31:17;;;;;;;4.53;3.75;;;3.90;99.90;;;;;;4994740;28;20072;-77
2020/12/25 05:33:42;;;;;;;7.88;4.25;;;3.90;99.90;;;;;;5012181;28;20129;-75
2020/12/25 05:36:13;;;;;;;6.13;4.40;;;3.90;99.90;;;;;;5012228;28;20523;-76
2020/12/25 05:38:41;;;;;;;6.80;4.63;;;3.90;99.90;;;;;;4994598;28;20388;-78
2020/12/25 05:41:07;;;;;;;7.85;4.68;;;3.90;99.90;;;;;;5012328;28;20133;-78
2020/12/25 05:43:34;;;;;;;6.10;4.72;;;3.90;99.90;;;;;;5012442;28;20468;-77
2020/12/25 05:46:00;;;;;;;6.65;5.07;;;3.90;99.90;;;;;;5012052;28;20025;-76
2020/12/25 05:48:26;;;;;;;8.93;5.20;;;3.90;99.90;;;;;;5011751;28;20050;-75
2020/12/25 05:50:52;;;;;;;9.65;5.30;;;3.90;99.90;;;;;;5002566;28;20027;-75
2020/12/25 05:53:18;;;;;;;5.47;4.28;;;3.90;99.90;;;;;;4983427;28;20499;-75
2020/12/25 05:55:45;;;;;;;6.10;4.07;;;3.90;99.90;;;;;;4984191;28;20060;-76
2020/12/25 05:58:15;;;;;;;7.60;4.38;;;3.90;99.90;;;;;;4997290;28;20129;-74
2020/12/25 06:00:42;;;;;;;5.15;3.67;;;3.90;99.90;;;;;;5000224;28;20085;-75
2020/12/25 06:03:17;;;;;;;5.70;4.05;;;3.90;99.90;;;;;;4999660;28;20125;-76
2020/12/25 06:05:46;;;;;;;4.57;3.50;;;3.90;99.90;;;;;;4999653;28;20061;-75
2020/12/25 06:08:36;;;;;;;4.75;3.53;;;3.90;99.90;;;;;;4983775;28;20068;-75
2020/12/25 06:11:04;;;;;;;5.20;3.72;;;3.90;99.90;;;;;;4991757;28;20030;-75
2020/12/25 06:13:51;;;;;;;6.85;3.55;;;3.90;99.90;;;;;;5000178;28;20105;-77
2020/12/25 06:16:21;;;;;;;5.45;3.33;;;3.90;99.90;;;;;;4999766;28;20031;-76
2020/12/25 06:19:08;;;;;;;5.57;3.58;;;3.90;99.90;;;;;;4999576;28;20787;-75
2020/12/25 06:21:45;;;;;;;4.32;3.33;;;3.90;99.90;;;;;;4998554;28;20118;-75
2020/12/25 06:24:19;;;;;;;4.15;3.60;;;3.90;99.90;;;;;;4997861;28;20014;-76
2020/12/25 06:26:49;;;;;;;5.03;3.60;;;3.90;99.90;;;;;;4999253;28;20434;-75
2020/12/25 06:29:16;;;;;;;4.72;3.70;;;3.90;99.90;;;;;;4999980;28;20056;-75
2020/12/25 06:31:44;;;;;;;4.35;3.67;;;3.90;99.90;;;;;;5001278;28;20079;-77
2020/12/25 06:34:10;;;;;;;5.32;3.90;;;3.90;99.90;;;;;;4997500;28;20492;-76
2020/12/25 06:36:41;;;;;;;5.43;3.35;;;3.90;99.90;;;;;;4982732;28;20029;-79
2020/12/25 06:39:15;;;;;;;5.45;3.88;;;3.90;99.90;;;;;;4997818;28;20385;-80
2020/12/25 06:41:41;;;;;;;6.60;3.72;;;3.90;99.90;;;;;;4982079;28;20492;-76
2020/12/25 06:44:15;;;;;;;4.47;3.50;;;3.90;99.90;;;;;;5001239;28;20033;-77
2020/12/25 06:46:48;;;;;;;5.35;3.78;;;4.00;99.90;;;;;;4991606;28;20045;-81
2020/12/25 06:49:16;;;;;;;5.75;3.67;;;4.00;99.90;;;;;;4981091;28;20030;-77
2020/12/25 06:51:43;;;;;;;4.13;3.22;;;4.00;99.90;;;;;;4999342;28;20034;-76
2020/12/25 06:54:22;;;;;;;6.80;3.60;;;4.00;99.90;;;;;;4997039;28;20026;-78
2020/12/25 06:56:52;;;;;;;5.32;3.30;;;4.00;99.90;;;;;;4978759;28;20098;-77
2020/12/25 06:59:19;;;;;;;4.43;3.28;;;4.10;99.90;;;;;;4977208;28;20030;-76
2020/12/25 07:01:46;;;;;;;4.80;3.83;;;4.10;99.90;;;;;;4991264;28;20458;-78
2020/12/25 07:04:29;;;;;;;5.65;3.80;;;4.10;99.90;;;;;;4991334;28;20015;-77
2020/12/25 07:06:59;;;;;;;6.53;3.60;;;4.20;99.90;;;;;;4991353;28;20053;-76
2020/12/25 07:09:46;;;;;;;6.35;3.47;;;4.20;99.90;;;;;;4991295;28;20377;-76
2020/12/25 07:12:23;;;;;;;6.10;3.42;;;4.20;99.90;;;;;;5006515;28;20022;-78
2020/12/25 07:14:49;;;;;;;6.35;3.55;;;4.20;99.90;;;;;;4991342;28;20034;-77
2020/12/25 07:17:18;;;;;;;5.22;3.72;;;4.20;99.90;;;;;;4990943;28;20034;-76
2020/12/25 07:19:44;;;;;;;7.28;4.32;;;4.20;99.90;;;;;;4991749;28;20030;-77
2020/12/25 07:22:10;;;;;;;4.68;3.67;;;4.30;99.90;;;;;;4977105;28;20034;-77
2020/12/25 07:24:43;;;;;;;9.35;4.30;;;4.30;99.90;;;;;;4977495;28;20034;-77
2020/12/25 07:27:10;;;;;;;6.40;4.30;;;4.30;99.90;;;;;;4994776;28;20022;-76
2020/12/25 07:29:37;;;;;;;8.55;4.57;;;4.40;99.90;;;;;;4994601;28;20025;-77
2020/12/25 07:32:03;;;;;;;10.75;4.07;;;4.40;99.90;;;;;;4977079;28;20058;-77
2020/12/25 07:34:29;;;;;;;9.65;4.00;;;4.40;99.90;;;;;;4994615;28;20508;-77
2020/12/25 07:36:56;;;;;;;7.43;3.58;;;4.50;99.90;;;;;;4994488;28;20152;-77
2020/12/25 07:39:23;;;;;;;8.07;3.83;;;4.50;99.90;;;;;;4994523;28;20109;-77
2020/12/25 07:41:49;;;;;;;4.47;3.35;;;4.50;99.90;;;;;;4994196;28;20044;-77
2020/12/25 07:44:16;;;;;;;6.78;4.20;;;4.50;99.90;;;;;;4994370;28;20484;-79
2020/12/25 07:46:44;;;;;;;8.13;3.67;;;4.60;99.90;;;;;;4976411;28;20464;-77
2020/12/25 07:49:10;;;;;;;7.13;3.67;;;4.60;99.90;;;;;;4994306;28;20110;-79
2020/12/25 07:51:36;;;;;;;4.75;3.83;;;4.60;99.90;;;;;;4994059;28;20033;-77
2020/12/25 07:54:04;;;;;;;5.20;3.80;;;4.60;99.90;;;;;;4994319;28;20027;-78
2020/12/25 07:56:34;;;;;;;8.93;3.92;;;4.60;99.90;;;;;;5009440;28;20037;-77
2020/12/25 07:59:00;;;;;;;6.15;3.75;;;4.70;99.90;;;;;;4994347;28;20050;-77
2020/12/25 08:01:28;;;;;;;12.13;4.15;;;4.70;99.90;;;;;;5009255;28;20036;-76
2020/12/25 08:03:57;;;;;;;12.73;5.47;;;4.70;99.90;;;;;;4994103;28;20110;-77
2020/12/25 08:06:25;;;;;;;5.85;3.90;;;4.80;99.90;;;;;;4994040;28;20380;-80
2020/12/25 08:09:07;;;;;;;6.93;4.20;;;4.80;99.90;;;;;;4994164;28;20023;-77
2020/12/25 08:11:34;;;;;;;;;;;4.80;99.90;;;;;;4994452;28;20018;-77
2020/12/25 08:14:05;;;;;;;12.63;5.43;;;4.80;99.90;;;;;;4994064;28;19906;-76
2020/12/25 08:16:32;;;;;;;8.98;4.05;;;4.90;99.90;;;;;;4993841;28;20106;-77
2020/12/25 08:18:58;;;;;;;7.88;4.38;;;4.90;99.90;;;;;;4976860;28;20026;-76
2020/12/25 08:21:31;;;;;;;8.82;5.05;;;4.90;99.90;;;;;;4973861;28;20425;-76
2020/12/25 08:23:57;;;;;;;9.88;5.05;;;4.90;99.90;;;;;;4973522;28;20022;-78
2020/12/25 08:26:34;;;;;;;8.88;4.55;;;5.00;99.90;;;;;;4973952;28;20018;-77
2020/12/25 08:29:00;;;;;;;5.55;4.20;;;5.00;99.90;;;;;;4973958;28;20026;-76
2020/12/25 08:31:32;;;;;;;7.75;5.35;;;5.00;99.90;;;;;;4974215;28;20110;-77
2020/12/25 08:33:58;;;;;;;;;;;5.00;99.90;;;;;;4969615;28;20473;-76
2020/12/25 08:36:24;;;;;;;11.50;5.20;;;5.10;99.90;;;;;;5012920;28;19991;-77
2020/12/25 08:38:50;;;;;;;10.43;5.32;;;5.10;99.90;;;;;;5012712;28;20049;-77
2020/12/25 08:41:17;;;;;;;8.43;5.15;;;5.10;99.90;;;;;;5012649;28;20096;-76
2020/12/25 08:43:43;;;;;;;11.40;5.20;;;5.20;99.90;;;;;;5013331;28;20050;-83
2020/12/25 08:46:09;;;;;;;9.18;5.60;;;5.20;99.90;;;;;;5014551;28;20145;-84
2020/12/25 08:48:55;;;;;;;12.23;5.35;;;5.20;99.90;;;;;;5014335;28;20129;-84
2020/12/25 08:51:21;;;;;;;11.27;5.10;;;5.20;99.90;;;;;;5013373;28;20072;-86
2020/12/25 08:53:54;;;;;;;11.48;5.40;;;5.30;99.90;;;;;;5014229;28;20373;-82
2020/12/25 08:56:22;;;;;;;8.82;4.85;;;5.30;99.90;;;;;;5014237;28;20097;-85
2020/12/25 08:59:07;;;;;;;8.27;5.38;;;5.30;99.90;;;;;;5014218;28;20018;-83
2020/12/25 09:01:39;;;;;;;8.60;5.18;;;5.30;99.90;;;;;;5013506;28;20171;-83
2020/12/25 09:04:11;;;;;;;16.63;6.15;;;5.40;99.90;;;;;;4995816;28;20104;-83
2020/12/25 09:06:37;;;;;;;12.63;5.70;;;5.40;99.90;;;;;;5014235;28;20105;-83
2020/12/25 09:09:03;;;;;;;8.60;5.50;;;5.50;99.90;;;;;;4997126;28;20049;-83
2020/12/25 09:11:29;;;;;;;12.05;5.88;;;5.50;99.90;;;;;;5014049;28;20449;-83
2020/12/25 09:13:55;;;;;;;18.83;7.28;;;5.60;99.90;;;;;;5013762;28;20073;-83
2020/12/25 09:16:21;;;;;;;10.02;5.53;;;5.60;99.90;;;;;;5016952;28;20040;-83
2020/12/25 09:18:47;;;;;;;10.02;5.78;;;5.70;99.90;;;;;;5013653;28;20416;-84
2020/12/25 09:21:14;;;;;;;12.18;6.15;;;5.80;99.90;;;;;;5013490;28;20029;-84
2020/12/25 09:23:41;;;;;;;11.57;6.40;;;5.90;99.90;;;;;;4995786;28;20060;-83
2020/12/25 09:26:09;;;;;;;20.05;7.38;;;5.90;99.90;;;;;;5013534;28;20018;-84
2020/12/25 09:28:35;;;;;;;16.23;7.13;;;5.90;99.90;;;;;;5013383;28;20022;-84
2020/12/25 09:31:04;;;;;;;11.35;6.63;;;5.90;99.90;;;;;;5013211;28;20101;-82
2020/12/25 09:33:29;;;;;;;19.30;8.38;;;6.00;99.90;;;;;;5013039;28;20037;-83
2020/12/25 09:35:55;;;;;;;33.55;9.23;;;6.00;99.90;;;;;;4995728;28;20041;-85
2020/12/25 09:38:21;;;;;;;17.80;8.63;;;6.00;99.90;;;;;;5013219;28;20381;-83
2020/12/25 09:40:48;;;;;;;15.77;7.88;;;6.00;99.90;;;;;;5012835;28;20473;-83
2020/12/25 09:43:14;;;;;;;21.15;8.60;;;6.00;99.90;;;;;;5012730;28;20033;-83
2020/12/25 09:45:39;;;;;;;18.48;7.95;;;6.00;99.90;;;;;;4995272;28;20030;-84
2020/12/25 09:48:05;;;;;;;19.60;8.95;;;6.00;99.90;;;;;;5013072;28;20054;-83
2020/12/25 09:50:31;;;;;;;18.35;8.88;;;6.00;99.90;;;;;;5012633;28;20033;-82
2020/12/25 09:52:56;;;;;;;20.52;8.88;;;6.00;99.90;;;;;;5012901;28;20033;-83
2020/12/25 09:55:22;;;;;;;17.73;9.75;;;6.00;99.90;;;;;;5013065;28;20108;-82
2020/12/25 09:57:48;;;;;;;21.70;10.15;;;6.10;99.90;;;;;;5013148;28;20109;-83
2020/12/25 10:00:14;;;;;;;22.85;10.25;;;6.20;99.90;;;;;;5013027;28;20361;-84
2020/12/25 10:02:52;;;;;;;20.25;10.35;;;6.20;99.90;;;;;;5012891;28;20041;-84
2020/12/25 10:05:18;;;;;;;26.90;10.45;;;6.30;99.90;;;;;;4996498;28;20022;-82
2020/12/25 10:07:44;;;;;;;30.00;11.50;;;6.40;99.90;;;;;;5013235;28;20037;-82
2020/12/25 10:10:10;;;;;;;22.00;10.90;;;6.40;99.90;;;;;;5012724;28;20029;-82
2020/12/25 10:12:35;;;;;;;28.73;11.40;;;6.50;99.90;;;;;;5013245;28;20457;-83
2020/12/25 10:15:04;;;;;;;30.02;11.63;;;6.50;99.90;;;;;;5015434;28;20030;-86
2020/12/25 10:17:30;;;;;;;32.90;12.77;;;6.60;99.90;;;;;;4996811;28;20077;-87
2020/12/25 10:19:56;;;;;;;60.80;14.40;;;6.60;99.90;;;;;;5014540;28;20026;-88
2020/12/25 10:22:29;;;;;;;28.13;12.63;;;6.60;99.90;;;;;;4999704;28;20404;-87
2020/12/25 10:25:05;;;;;;;46.75;15.40;;;6.60;99.90;;;;;;5018124;28;20088;-88
2020/12/25 10:27:32;;;;;;;44.13;13.85;;;6.60;99.90;;;;;;5001299;28;20076;-86
2020/12/25 10:30:00;;;;;;;37.45;14.43;;;6.50;99.90;;;;;;4998616;28;20044;-88
2020/12/25 10:32:32;;;;;;;37.97;13.10;;;6.50;99.90;;;;;;4998627;28;20464;-89
2020/12/25 10:34:57;;;;;;;28.15;13.95;;;6.50;99.90;;;;;;5021080;28;20026;-93
2020/12/25 10:37:23;;;;;;;37.15;14.13;;;6.50;99.90;;;;;;5016816;28;20025;-93
2020/12/25 10:39:49;;;;;;;32.78;14.23;;;6.50;99.90;;;;;;4998085;28;20488;-89
2020/12/25 10:42:14;;;;;;;34.17;14.80;;;6.50;99.90;;;;;;5016245;28;20025;-93
2020/12/25 10:44:40;;;;;;;39.05;14.70;;;6.50;99.90;;;;;;4997801;28;20022;-83
2020/12/25 10:47:06;;;;;;;32.00;14.98;;;6.60;99.90;;;;;;5011762;28;20445;-82
2020/12/25 10:49:32;;;;;;;36.08;15.82;;;6.60;99.90;;;;;;4994767;28;20474;-79
2020/12/25 10:51:58;;;;;;;29.65;15.10;;;6.60;99.90;;;;;;5012330;28;20048;-82
2020/12/25 10:54:23;;;;;;;33.97;15.18;;;6.60;99.90;;;;;;4993732;28;20056;-81
2020/12/25 10:56:50;;;;;;;30.20;15.48;;;6.70;99.90;;;;;;4997187;28;20388;-81
2020/12/25 10:59:16;;;;;;;31.70;15.38;;;6.80;99.90;;;;;;5015376;28;20465;-81
2020/12/25 11:01:46;;;;;;;35.78;16.90;;;6.80;99.90;;;;;;4997113;28;20033;-81
2020/12/25 11:04:13;;;;;;;27.55;14.77;;;6.90;99.90;;;;;;5015073;28;20576;-79
2020/12/25 11:06:39;;;;;;;32.22;15.55;;;6.90;99.90;;;;;;5015121;28;20052;-80
2020/12/25 11:09:06;;;;;;;34.75;16.13;;;6.90;99.90;;;;;;5014683;28;20061;-80
2020/12/25 11:11:35;;;;;;;37.28;16.45;;;6.90;99.90;;;;;;4997095;28;20045;-80
2020/12/25 11:14:02;;;;;;;30.85;15.75;;;6.90;99.90;;;;;;5014779;28;20018;-81
2020/12/25 11:16:30;;;;;;;27.73;14.80;;;7.00;99.90;;;;;;4997534;28;20022;-80
2020/12/25 11:18:57;;;;;;;31.80;16.23;;;7.00;99.90;;;;;;5014328;28;20044;-79
2020/12/25 11:21:30;;;;;;;32.65;16.48;;;7.00;99.90;;;;;;5013744;28;20444;-84
2020/12/25 11:23:57;;;;;;;35.75;16.50;;;7.00;99.90;;;;;;5016195;28;20109;-79
2020/12/25 11:26:28;;;;;;;31.17;15.70;;;7.10;99.90;;;;;;4999701;28;20022;-81
2020/12/25 11:28:56;;;;;;;38.40;16.92;;;7.10;99.90;;;;;;5014545;28;20031;-80
2020/12/25 11:31:22;;;;;;;31.58;16.70;;;7.20;99.90;;;;;;5014393;28;20022;-78
2020/12/25 11:33:49;;;;;;;30.27;16.90;;;7.20;99.90;;;;;;5014158;28;20081;-85
2020/12/25 11:36:22;;;;;;;35.75;17.08;;;7.20;99.90;;;;;;5015194;28;20030;-84
2020/12/25 11:38:48;;;;;;;30.02;16.23;;;7.20;99.90;;;;;;4996684;28;20022;-81
2020/12/25 11:41:16;;;;;;;35.47;17.63;;;7.20;99.90;;;;;;5014469;28;20026;-81
2020/12/25 11:43:43;;;;;;;34.72;17.30;;;7.20;99.90;;;;;;5013777;28;20069;-81
2020/12/25 11:46:09;;;;;;;38.78;18.38;;;7.20;99.90;;;;;;4996296;28;20444;-83
2020/12/25 11:48:35;;;;;;;33.25;17.65;;;7.20;99.90;;;;;;4995857;28;20109;-82
2020/12/25 11:51:01;;;;;;;36.67;18.75;;;7.20;99.90;;;;;;5013526;28;20121;-81
2020/12/25 11:53:28;;;;;;;34.17;17.27;;;7.20;99.90;;;;;;5013804;28;20105;-80
2020/12/25 11:55:54;;;;;;;33.58;17.98;;;7.20;99.90;;;;;;5013435;28;20030;-81
2020/12/25 11:58:19;;;;;;;37.13;17.52;;;7.20;99.90;;;;;;4995569;28;20069;-79
2020/12/25 12:00:45;;;;;;;40.72;18.00;;;7.30;99.90;;;;;;5013691;28;20045;-81
2020/12/25 12:03:11;;;;;;;36.53;18.35;;;7.30;99.90;;;;;;5013230;28;20061;-80
2020/12/25 12:05:42;;;;;;;36.05;18.75;;;7.30;99.90;;;;;;4994993;28;20048;-80
2020/12/25 12:08:09;;;;;;;42.05;19.15;;;7.40;99.90;;;;;;5012129;28;20025;-82
2020/12/25 12:10:35;;;;;;;46.20;18.38;;;7.40;99.90;;;;;;5013347;28;20022;-81
2020/12/25 12:13:01;;;;;;;38.22;19.65;;;7.40;99.90;;;;;;5012907;28;20428;-80
2020/12/25 12:15:27;;;;;;;35.75;20.20;;;7.50;99.90;;;;;;5013036;28;20032;-80
2020/12/25 12:17:53;;;;;;;42.78;21.58;;;7.40;99.90;;;;;;5013095;28;20030;-82
2020/12/25 12:20:19;;;;;;;39.83;19.48;;;7.40;99.90;;;;;;4995121;28;20029;-80
2020/12/25 12:22:44;;;;;;;38.22;20.52;;;7.40;99.90;;;;;;5012450;28;20025;-77
2020/12/25 12:25:10;;;;;;;36.65;20.42;;;7.50;99.90;;;;;;4994988;28;20115;-78
2020/12/25 12:27:36;;;;;;;37.50;20.52;;;7.50;99.90;;;;;;5012653;28;20075;-79
2020/12/25 12:30:04;;;;;;;40.67;19.70;;;7.40;99.90;;;;;;4994707;28;20046;-79
2020/12/25 12:32:30;;;;;;;37.63;19.83;;;7.40;99.90;;;;;;5012430;28;20119;-80
2020/12/25 12:34:56;;;;;;;43.08;21.30;;;7.40;99.90;;;;;;4994635;28;20599;-79
2020/12/25 12:37:21;;;;;;;47.92;22.42;;;7.40;99.90;;;;;;5012698;28;20360;-82
2020/12/25 12:39:47;;;;;;;41.58;21.85;;;7.40;99.90;;;;;;4998370;28;20113;-92
2020/12/25 12:42:13;;;;;;;37.75;19.67;;;7.40;99.90;;;;;;5018102;28;20033;-92
2020/12/25 12:44:38;;;;;;;39.53;20.00;;;7.40;99.90;;;;;;5016287;28;20460;-92
2020/12/25 12:47:04;;;;;;;35.70;19.02;;;7.30;99.90;;;;;;4998973;28;20049;-90
2020/12/25 12:49:30;;;;;;;57.35;29.63;;;7.40;99.90;;;;;;4999834;28;20045;-90
2020/12/25 12:51:55;;;;;;;51.58;27.38;;;7.30;99.90;;;;;;4998286;28;20057;-88
2020/12/25 12:54:21;;;;;;;43.10;21.77;;;7.30;99.90;;;;;;5016073;28;20380;-90